Time;durP1;ratioP1;P1;durP2;ratioP2;P2;SDS_P1;SDS_P2;PMS_P1;PMS_P2;Temp;Humidity;BMP_temperature;BMP_pressure;BME280_temperature;BME280_humidity;BME280_pressure;Samples;Min_cycle;Max_cycle;Signal;HPM_P1;HPM_P2
2021/09/22 00:00:24;;;;;;;2.10;2.00;;;15.60;99.90;;;;;;6183317;23;20049;-83
2021/09/22 00:02:52;;;;;;;2.30;2.10;;;15.50;99.90;;;;;;6185124;23;20352;-81
2021/09/22 00:05:19;;;;;;;2.40;2.20;;;15.40;99.90;;;;;;6185154;23;20350;-81
2021/09/22 00:07:49;;;;;;;2.45;2.25;;;15.40;99.90;;;;;;6183784;23;20347;-81
2021/09/22 00:10:19;;;;;;;2.40;2.20;;;15.50;99.90;;;;;;6183566;23;20105;-79
2021/09/22 00:12:50;;;;;;;3.10;2.88;;;15.50;99.90;;;;;;6208515;23;20107;-82
2021/09/22 00:15:20;;;;;;;4.28;3.25;;;15.70;99.90;;;;;;6183193;23;20025;-78
2021/09/22 00:17:48;;;;;;;2.33;2.13;;;15.50;99.90;;;;;;6183283;23;20029;-80
2021/09/22 00:20:17;;;;;;;2.58;2.38;;;15.70;99.90;;;;;;6183690;23;20100;-83
2021/09/22 00:22:44;;;;;;;2.30;2.10;;;15.70;99.90;;;;;;6185033;23;20017;-81
2021/09/22 00:25:12;;;;;;;2.35;2.15;;;15.80;99.90;;;;;;6183327;23;20025;-82
2021/09/22 00:27:41;;;;;;;2.95;2.65;;;15.90;99.90;;;;;;6159035;23;20440;-80
2021/09/22 00:30:13;;;;;;;2.00;1.90;;;15.90;99.90;;;;;;6208204;23;20023;-78
2021/09/22 00:32:41;;;;;;;2.10;2.00;;;15.80;99.90;;;;;;6184929;23;20013;-78
2021/09/22 00:35:24;;;;;;;2.40;2.20;;;16.00;99.90;;;;;;6185054;23;20024;-78
2021/09/22 00:37:51;;;;;;;2.63;2.42;;;15.80;99.90;;;;;;6185563;23;20067;-79
2021/09/22 00:40:18;;;;;;;3.70;2.63;;;15.70;99.90;;;;;;6185023;23;20390;-81
2021/09/22 00:42:46;;;;;;;2.45;2.25;;;15.60;99.90;;;;;;6183124;23;20024;-80
2021/09/22 00:45:17;;;;;;;2.10;2.00;;;15.70;99.90;;;;;;6183597;23;20148;-81
2021/09/22 00:47:45;;;;;;;2.10;2.00;;;15.70;99.90;;;;;;6183267;23;20399;-81
2021/09/22 00:50:12;;;;;;;1.90;1.80;;;15.80;99.90;;;;;;6183309;23;20035;-79
2021/09/22 00:52:41;;;;;;;2.40;2.22;;;15.70;99.90;;;;;;6185446;23;20336;-81
2021/09/22 00:55:11;;;;;;;2.15;2.03;;;15.50;99.90;;;;;;6182841;23;20463;-81
2021/09/22 00:58:02;;;;;;;2.50;2.30;;;15.60;99.90;;;;;;6183590;23;20044;-81
2021/09/22 01:00:29;;;;;;;2.35;2.15;;;15.50;99.90;;;;;;6158115;23;20045;-81
2021/09/22 01:02:57;;;;;;;2.00;1.90;;;15.60;99.90;;;;;;6183093;23;20067;-80
2021/09/22 01:05:27;;;;;;;2.50;2.30;;;15.50;99.90;;;;;;6184974;23;20024;-81
2021/09/22 01:07:54;;;;;;;2.47;2.28;;;15.40;99.90;;;;;;6184946;23;20025;-81
2021/09/22 01:10:22;;;;;;;2.10;2.00;;;15.50;99.90;;;;;;6184766;23;20017;-82
2021/09/22 01:12:50;;;;;;;2.50;2.30;;;15.50;99.90;;;;;;6184621;23;20351;-81
2021/09/22 01:15:36;;;;;;;2.00;1.90;;;15.50;99.90;;;;;;6184063;23;20023;-81
2021/09/22 01:18:17;;;;;;;2.30;2.10;;;15.50;99.90;;;;;;6183409;23;20387;-82
2021/09/22 01:20:49;;;;;;;2.00;1.90;;;15.40;99.90;;;;;;6185180;23;20031;-83
2021/09/22 01:23:17;;;;;;;2.10;2.00;;;15.30;99.90;;;;;;6185225;23;20039;-80
2021/09/22 01:25:47;;;;;;;2.47;2.28;;;15.30;99.90;;;;;;6184443;23;20031;-83
2021/09/22 01:28:17;;;;;;;2.30;2.10;;;15.50;99.90;;;;;;6183197;23;20048;-81
2021/09/22 01:30:46;;;;;;;2.50;2.30;;;15.30;99.90;;;;;;6184472;23;20021;-80
2021/09/22 01:33:15;;;;;;;2.10;2.00;;;15.40;99.90;;;;;;6184600;23;20397;-85
2021/09/22 01:35:46;;;;;;;2.00;1.90;;;15.50;99.90;;;;;;6208135;23;20084;-81
2021/09/22 01:38:17;;;;;;;3.13;2.83;;;15.60;99.90;;;;;;6185156;23;20021;-86
2021/09/22 01:41:00;;;;;;;2.63;2.42;;;15.60;99.90;;;;;;6183248;23;20048;-84
2021/09/22 01:43:29;;;;;;;2.45;2.25;;;15.50;99.90;;;;;;6184553;23;20044;-83
2021/09/22 01:45:58;;;;;;;2.10;2.00;;;15.40;99.90;;;;;;6184424;23;20072;-87
2021/09/22 01:48:32;;;;;;;2.00;1.90;;;15.40;99.90;;;;;;6184752;23;20021;-86
2021/09/22 01:51:02;;;;;;;3.05;2.75;;;15.40;99.90;;;;;;6183075;23;20399;-88
2021/09/22 01:53:30;;;;;;;2.00;1.90;;;15.60;99.90;;;;;;6182757;23;20021;-83
2021/09/22 01:55:59;;;;;;;3.85;3.55;;;15.50;99.90;;;;;;6184879;23;20017;-84
2021/09/22 01:58:28;;;;;;;2.58;2.38;;;15.70;99.90;;;;;;6182905;23;20056;-86
2021/09/22 02:01:00;;;;;;;2.75;2.55;;;15.80;99.90;;;;;;6184219;23;20397;-84
2021/09/22 02:03:31;;;;;;;3.15;2.95;;;15.70;99.90;;;;;;6183054;23;20398;-86
2021/09/22 02:05:58;;;;;;;;;;;15.50;99.90;;;;;;6159266;23;20140;-86
2021/09/22 02:08:25;;;;;;;2.28;2.13;;;15.30;99.90;;;;;;6159516;23;19916;-87
2021/09/22 02:10:56;;;;;;;1.90;1.80;;;15.30;99.90;;;;;;6183281;23;20013;-84
2021/09/22 02:13:23;;;;;;;2.00;1.90;;;15.20;99.90;;;;;;6208178;23;20040;-81
2021/09/22 02:15:50;;;;;;;2.97;2.78;;;15.20;99.90;;;;;;6184244;23;20075;-86
2021/09/22 02:18:18;;;;;;;3.67;3.38;;;15.40;99.90;;;;;;6182994;23;20040;-81
2021/09/22 02:20:45;;;;;;;2.25;2.05;;;15.40;99.90;;;;;;6184418;23;20064;-85
2021/09/22 02:23:12;;;;;;;2.00;1.90;;;15.40;99.90;;;;;;6184642;23;20017;-85
2021/09/22 02:25:41;;;;;;;2.83;2.63;;;15.40;99.90;;;;;;6207053;23;20529;-86
2021/09/22 02:28:09;;;;;;;2.00;1.90;;;15.60;99.90;;;;;;6184394;23;20048;-83
2021/09/22 02:30:36;;;;;;;2.35;2.15;;;15.60;99.90;;;;;;6184034;23;20023;-83
2021/09/22 02:33:03;;;;;;;1.95;1.85;;;15.60;99.90;;;;;;6184289;23;20017;-83
2021/09/22 02:35:31;;;;;;;2.05;1.95;;;15.60;99.90;;;;;;6182481;23;20020;-80
2021/09/22 02:37:58;;;;;;;2.10;2.00;;;15.50;99.90;;;;;;6182821;23;20375;-82
2021/09/22 02:40:26;;;;;;;2.10;2.00;;;15.50;99.90;;;;;;6207111;23;20021;-80
2021/09/22 02:42:56;;;;;;;2.10;2.00;;;15.20;99.90;;;;;;6182230;23;20041;-82
2021/09/22 02:45:38;;;;;;;2.10;2.00;;;15.30;99.90;;;;;;6182323;23;20033;-81
2021/09/22 02:52:57;;;;;;;2.00;1.90;;;15.60;99.90;;;;;;6148304;23;20550;-83
2021/09/22 02:55:24;;;;;;;2.50;2.30;;;15.60;99.90;;;;;;6182179;23;20053;-83
2021/09/22 02:57:58;;;;;;;2.30;2.10;;;15.50;99.90;;;;;;6207248;23;20052;-83
2021/09/22 03:00:27;;;;;;;2.30;2.15;;;15.40;99.90;;;;;;6176833;23;20021;-82
2021/09/22 03:02:54;;;;;;;2.20;2.10;;;15.50;99.90;;;;;;6182803;23;20032;-81
2021/09/22 03:05:22;;;;;;;2.00;1.90;;;15.10;99.90;;;;;;6183631;23;20033;-81
2021/09/22 03:07:49;;;;;;;2.00;1.90;;;15.00;99.90;;;;;;6182392;23;20099;-84
2021/09/22 03:10:19;;;;;;;2.00;1.90;;;15.10;99.90;;;;;;6182520;23;20017;-81
2021/09/22 03:12:47;;;;;;;2.15;2.05;;;15.10;99.90;;;;;;6182545;23;20020;-81
2021/09/22 03:15:15;;;;;;;2.20;2.10;;;15.10;99.90;;;;;;6183238;23;20079;-81
2021/09/22 03:17:43;;;;;;;2.00;1.90;;;15.20;99.90;;;;;;6183987;23;20024;-81
2021/09/22 03:20:11;;;;;;;2.00;1.90;;;15.40;99.90;;;;;;6181961;23;20044;-81
2021/09/22 03:22:38;;;;;;;2.10;2.00;;;15.50;99.90;;;;;;6183934;23;20052;-80
2021/09/22 03:25:07;;;;;;;2.50;2.30;;;15.60;99.90;;;;;;6181939;23;20025;-80
2021/09/22 03:27:34;;;;;;;2.10;2.00;;;15.50;99.90;;;;;;6183850;23;20013;-77
2021/09/22 03:30:04;;;;;;;2.08;1.98;;;15.50;99.90;;;;;;6181442;23;20025;-78
2021/09/22 03:32:32;;;;;;;2.30;2.10;;;15.50;99.90;;;;;;6183360;23;20040;-79
2021/09/22 03:34:59;;;;;;;2.00;1.90;;;15.60;99.90;;;;;;6156919;23;20071;-79
2021/09/22 03:37:27;;;;;;;2.38;2.17;;;15.80;99.90;;;;;;6185196;23;20453;-85
2021/09/22 03:39:54;;;;;;;2.60;2.40;;;15.80;99.90;;;;;;6183783;23;20047;-83
2021/09/22 03:42:22;;;;;;;2.03;1.92;;;15.80;99.90;;;;;;6184437;23;20013;-77
2021/09/22 03:44:49;;;;;;;1.95;1.85;;;15.70;99.90;;;;;;6183766;23;20021;-80
2021/09/22 03:47:17;;;;;;;2.03;1.92;;;15.80;99.90;;;;;;6184555;23;20088;-79
2021/09/22 03:49:45;;;;;;;2.28;2.05;;;15.80;99.90;;;;;;6185292;23;20031;-83
2021/09/22 03:52:12;;;;;;;1.90;1.80;;;15.90;99.90;;;;;;6186175;23;20021;-81
2021/09/22 03:54:40;;;;;;;2.20;2.05;;;15.80;99.90;;;;;;6208467;23;20024;-81
2021/09/22 03:57:07;;;;;;;2.22;2.10;;;15.90;99.90;;;;;;6184429;23;20021;-81
2021/09/22 03:59:39;;;;;;;2.75;2.55;;;15.80;99.90;;;;;;6184012;23;20025;-81
2021/09/22 04:02:06;;;;;;;3.80;3.25;;;15.80;99.90;;;;;;6184086;23;20084;-81
2021/09/22 04:04:35;;;;;;;2.42;2.22;;;15.80;99.90;;;;;;6159079;23;20021;-82
2021/09/22 04:07:03;;;;;;;1.90;1.80;;;15.80;99.90;;;;;;6159388;23;20027;-81
2021/09/22 04:09:31;;;;;;;3.47;3.25;;;15.80;99.90;;;;;;6159347;23;20052;-79
2021/09/22 04:11:58;;;;;;;1.83;1.73;;;15.70;99.90;;;;;;6185145;23;20017;-82
2021/09/22 04:14:26;;;;;;;2.42;2.22;;;15.60;99.90;;;;;;6183656;23;20112;-82
2021/09/22 04:16:53;;;;;;;1.90;1.80;;;15.60;99.90;;;;;;6184046;23;20021;-80
2021/09/22 04:19:21;;;;;;;1.90;1.80;;;15.50;99.90;;;;;;6183546;23;20343;-81
2021/09/22 04:21:48;;;;;;;2.00;1.90;;;15.60;99.90;;;;;;6185379;23;20025;-81
2021/09/22 04:24:16;;;;;;;2.67;2.45;;;15.70;99.90;;;;;;6159737;23;20027;-80
2021/09/22 04:26:43;;;;;;;2.08;1.98;;;15.70;99.90;;;;;;6208572;23;20072;-82
2021/09/22 04:29:11;;;;;;;2.30;2.13;;;15.60;99.90;;;;;;6185483;23;20039;-80
2021/09/22 04:31:40;;;;;;;2.45;2.25;;;15.50;99.90;;;;;;6183571;23;20470;-85
2021/09/22 04:34:10;;;;;;;2.58;2.38;;;15.60;99.90;;;;;;6185304;23;20021;-83
2021/09/22 04:36:40;;;;;;;2.40;2.20;;;15.50;99.90;;;;;;6208870;23;20017;-84
2021/09/22 04:39:09;;;;;;;3.78;3.17;;;15.40;99.90;;;;;;6183876;23;20021;-83
2021/09/22 04:41:36;;;;;;;2.45;2.25;;;15.30;99.90;;;;;;6183505;23;20350;-82
2021/09/22 04:44:03;;;;;;;3.22;2.97;;;15.30;99.90;;;;;;6184084;23;20060;-80
2021/09/22 04:46:31;;;;;;;2.13;2.03;;;15.20;99.90;;;;;;6184936;23;20384;-80
2021/09/22 04:48:58;;;;;;;1.95;1.85;;;15.20;99.90;;;;;;6184263;23;20021;-79
2021/09/22 04:51:25;;;;;;;2.30;2.10;;;15.10;99.90;;;;;;6184479;23;20177;-78
2021/09/22 04:53:53;;;;;;;1.95;1.85;;;15.10;99.90;;;;;;6208368;23;20045;-82
2021/09/22 04:56:20;;;;;;;2.00;1.90;;;15.20;99.90;;;;;;6183188;23;20329;-84
2021/09/22 04:58:47;;;;;;;2.92;2.72;;;15.10;99.90;;;;;;6185211;23;20198;-78
2021/09/22 05:01:15;;;;;;;2.30;2.10;;;15.10;99.90;;;;;;6184989;23;20409;-80
2021/09/22 05:03:43;;;;;;;4.28;3.60;;;15.30;99.90;;;;;;6184832;23;20021;-76
2021/09/22 05:06:11;;;;;;;2.63;2.42;;;15.50;99.90;;;;;;6184474;23;20395;-79
2021/09/22 05:08:38;;;;;;;2.22;2.08;;;15.40;99.90;;;;;;6183333;23;20021;-80
2021/09/22 05:11:05;;;;;;;2.70;2.50;;;15.50;99.90;;;;;;6184151;23;20025;-79
2021/09/22 05:13:33;;;;;;;2.42;2.22;;;15.40;99.90;;;;;;6158193;23;20032;-81
2021/09/22 05:16:00;;;;;;;2.00;1.90;;;15.30;99.90;;;;;;6182826;23;20566;-80
2021/09/22 05:18:27;;;;;;;1.90;1.80;;;15.40;99.90;;;;;;6184413;23;20017;-81
2021/09/22 05:20:55;;;;;;;3.15;2.92;;;15.40;99.90;;;;;;6182269;23;20043;-80
2021/09/22 05:23:22;;;;;;;3.00;2.80;;;15.40;99.90;;;;;;6184468;23;20016;-78
2021/09/22 05:25:51;;;;;;;3.20;3.00;;;15.40;99.90;;;;;;6184480;23;20096;-79
2021/09/22 05:28:18;;;;;;;3.85;3.42;;;15.50;99.90;;;;;;6184331;23;20040;-78
2021/09/22 05:30:45;;;;;;;4.57;4.22;;;15.50;99.90;;;;;;6183514;23;20494;-82
2021/09/22 05:33:13;;;;;;;2.78;2.58;;;15.50;99.90;;;;;;6183606;23;20028;-80
2021/09/22 05:35:47;;;;;;;2.67;2.47;;;15.50;99.90;;;;;;6184334;23;20021;-80
2021/09/22 05:38:15;;;;;;;2.78;2.58;;;15.60;99.90;;;;;;6184500;23;20021;-79
2021/09/22 05:40:42;;;;;;;2.00;1.90;;;15.60;99.90;;;;;;6182718;23;20040;-79
2021/09/22 05:43:09;;;;;;;1.95;1.85;;;15.60;99.90;;;;;;6182130;23;20111;-80
2021/09/22 05:45:37;;;;;;;2.00;1.90;;;15.50;99.90;;;;;;6184004;23;20040;-81
2021/09/22 05:48:04;;;;;;;4.10;3.80;;;15.50;99.90;;;;;;6184592;23;20013;-80
2021/09/22 05:50:32;;;;;;;3.40;3.10;;;15.60;99.90;;;;;;6184224;23;20016;-79
2021/09/22 05:52:59;;;;;;;2.55;2.35;;;15.70;99.90;;;;;;6182379;23;20051;-78
2021/09/22 05:55:26;;;;;;;2.35;2.15;;;15.70;99.90;;;;;;6183944;23;20408;-80
2021/09/22 05:57:54;;;;;;;2.00;1.90;;;15.60;99.90;;;;;;6184359;23;20025;-78
2021/09/22 06:00:21;;;;;;;2.05;1.95;;;15.60;99.90;;;;;;6183843;23;20047;-80
2021/09/22 06:02:48;;;;;;;1.90;1.80;;;15.70;99.90;;;;;;6182527;23;20088;-80
2021/09/22 06:05:15;;;;;;;1.92;1.83;;;15.70;99.90;;;;;;6184027;23;20031;-77
2021/09/22 06:07:43;;;;;;;2.00;1.90;;;15.80;99.90;;;;;;6184183;23;20056;-82
2021/09/22 06:10:10;;;;;;;2.45;2.25;;;15.80;99.90;;;;;;6184453;23;20088;-83
2021/09/22 06:12:38;;;;;;;2.45;2.28;;;15.90;99.90;;;;;;6157716;23;20079;-81
2021/09/22 06:15:06;;;;;;;2.03;1.90;;;15.60;99.90;;;;;;6180962;23;20037;-79
2021/09/22 06:17:34;;;;;;;2.03;1.92;;;15.50;99.90;;;;;;6181283;23;20108;-83
2021/09/22 06:20:02;;;;;;;2.22;2.03;;;15.60;99.90;;;;;;6157911;23;20407;-81
2021/09/22 06:22:31;;;;;;;2.40;2.20;;;15.60;99.90;;;;;;6183715;23;20016;-82
2021/09/22 06:24:59;;;;;;;2.10;2.00;;;15.60;99.90;;;;;;6182390;23;20406;-82
2021/09/22 06:27:27;;;;;;;2.30;2.10;;;15.50;99.90;;;;;;6157643;23;20368;-81
2021/09/22 06:29:54;;;;;;;2.83;2.63;;;15.50;99.90;;;;;;6182006;23;20515;-82
2021/09/22 06:32:22;;;;;;;1.90;1.80;;;15.70;99.90;;;;;;6184024;23;20020;-84
2021/09/22 06:34:50;;;;;;;2.35;2.15;;;15.60;99.90;;;;;;6182675;23;20028;-82
2021/09/22 06:37:17;;;;;;;1.90;1.80;;;15.70;99.90;;;;;;6183747;23;20088;-78
2021/09/22 06:39:45;;;;;;;2.95;2.72;;;15.60;99.90;;;;;;6181961;23;20391;-81
2021/09/22 06:42:12;;;;;;;2.40;2.20;;;15.60;99.90;;;;;;6181871;23;20092;-82
2021/09/22 06:44:39;;;;;;;2.22;2.10;;;15.60;99.90;;;;;;6183285;23;20028;-80
2021/09/22 06:47:07;;;;;;;2.00;1.90;;;15.60;99.90;;;;;;6181012;23;20025;-83
2021/09/22 06:49:34;;;;;;;3.15;2.15;;;15.60;99.90;;;;;;6183690;23;20037;-80
2021/09/22 06:52:02;;;;;;;2.35;2.15;;;15.60;99.90;;;;;;6181619;23;20025;-80
2021/09/22 06:54:29;;;;;;;1.85;1.75;;;15.70;99.90;;;;;;6182355;23;20039;-80
2021/09/22 06:56:57;;;;;;;1.90;1.80;;;15.70;99.90;;;;;;6182306;23;20096;-81
2021/09/22 06:59:24;;;;;;;2.03;1.92;;;15.80;99.90;;;;;;6181638;23;20041;-79
2021/09/22 07:01:51;;;;;;;3.58;3.05;;;15.80;99.90;;;;;;6180847;23;20375;-81
2021/09/22 07:04:20;;;;;;;1.92;1.83;;;15.60;99.90;;;;;;6181606;23;20009;-82
2021/09/22 07:06:48;;;;;;;2.25;2.13;;;15.60;99.90;;;;;;6182175;23;20028;-79
2021/09/22 07:09:15;;;;;;;2.00;1.90;;;15.60;99.90;;;;;;6180843;23;20021;-80
2021/09/22 07:11:43;;;;;;;2.83;2.63;;;15.70;99.90;;;;;;6181991;23;20572;-80
2021/09/22 07:14:10;;;;;;;1.95;1.85;;;15.60;99.90;;;;;;6182517;23;20021;-81
2021/09/22 07:16:37;;;;;;;2.00;1.90;;;15.60;99.90;;;;;;6158841;23;20028;-82
2021/09/22 07:19:05;;;;;;;1.90;1.80;;;15.50;99.90;;;;;;6184660;23;20021;-81
2021/09/22 07:21:33;;;;;;;2.53;2.33;;;15.50;99.90;;;;;;6183140;23;20021;-83
2021/09/22 07:24:01;;;;;;;4.60;2.40;;;15.50;99.90;;;;;;6184190;23;20036;-79
2021/09/22 07:26:28;;;;;;;2.47;2.28;;;15.40;99.90;;;;;;6184665;23;20378;-85
2021/09/22 07:28:55;;;;;;;2.50;2.30;;;15.50;99.90;;;;;;6183814;23;20021;-80
2021/09/22 07:31:23;;;;;;;2.05;1.95;;;15.50;99.90;;;;;;6159855;23;20485;-82
2021/09/22 07:33:50;;;;;;;2.10;2.00;;;15.50;99.90;;;;;;6184379;23;20017;-81
2021/09/22 07:36:18;;;;;;;2.00;1.90;;;15.30;99.90;;;;;;6185833;23;20501;-84
2021/09/22 07:38:46;;;;;;;2.03;1.92;;;15.40;99.90;;;;;;6185820;23;20408;-85
2021/09/22 07:41:13;;;;;;;2.38;2.22;;;15.50;99.90;;;;;;6185721;23;20029;-78
2021/09/22 07:43:40;;;;;;;2.10;2.00;;;15.40;99.90;;;;;;6183736;23;20040;-81
2021/09/22 07:46:08;;;;;;;2.28;2.10;;;15.60;99.90;;;;;;6185463;23;20561;-80
2021/09/22 07:48:36;;;;;;;1.90;1.80;;;15.60;99.90;;;;;;6184205;23;20044;-82
2021/09/22 07:51:06;;;;;;;1.90;1.80;;;15.60;99.90;;;;;;6183859;23;20044;-80
2021/09/22 07:53:34;;;;;;;2.15;2.05;;;15.70;99.90;;;;;;6184704;23;20032;-82
2021/09/22 07:56:28;;;;;;;1.90;1.80;;;15.80;99.90;;;;;;6183605;23;20089;-81
2021/09/22 07:58:55;;;;;;;2.03;1.92;;;15.70;99.90;;;;;;6185441;23;20589;-81
2021/09/22 08:01:23;;;;;;;2.53;2.33;;;15.70;99.90;;;;;;6183737;23;20455;-81
2021/09/22 08:03:53;;;;;;;2.00;1.90;;;15.80;99.90;;;;;;6185537;23;20013;-81
2021/09/22 08:06:23;;;;;;;1.80;1.70;;;15.70;99.90;;;;;;6183525;23;20027;-79
2021/09/22 08:08:50;;;;;;;1.83;1.73;;;15.60;99.90;;;;;;6159410;23;20104;-79
2021/09/22 08:11:20;;;;;;;1.90;1.80;;;15.60;99.90;;;;;;6183644;23;20076;-81
2021/09/22 08:13:47;;;;;;;2.28;2.10;;;15.70;99.90;;;;;;6185208;23;20408;-83
2021/09/22 08:16:15;;;;;;;2.03;1.92;;;15.70;99.90;;;;;;6159184;23;20045;-82
2021/09/22 08:18:46;;;;;;;2.90;2.28;;;15.80;99.90;;;;;;6183888;23;20383;-83
2021/09/22 08:21:14;;;;;;;2.00;1.90;;;15.90;99.90;;;;;;6185301;23;20017;-81
2021/09/22 08:23:42;;;;;;;1.90;1.80;;;15.80;99.90;;;;;;6185307;23;20017;-80
2021/09/22 08:26:10;;;;;;;1.80;1.70;;;15.80;99.90;;;;;;6183750;23;20603;-81
2021/09/22 08:28:37;;;;;;;1.90;1.80;;;15.80;99.90;;;;;;6183898;23;20099;-80
2021/09/22 08:31:05;;;;;;;1.90;1.80;;;15.80;99.90;;;;;;6184521;23;20381;-81
2021/09/22 08:33:32;;;;;;;1.85;1.75;;;15.70;99.90;;;;;;6185338;23;20092;-81
2021/09/22 08:36:00;;;;;;;1.90;1.80;;;15.60;99.90;;;;;;6158742;23;20455;-81
2021/09/22 08:38:27;;;;;;;1.80;1.70;;;15.70;99.90;;;;;;6185119;23;20021;-81
2021/09/22 08:40:54;;;;;;;1.80;1.70;;;15.60;99.90;;;;;;6182912;23;20040;-80
2021/09/22 08:43:26;;;;;;;2.22;2.13;;;15.70;99.90;;;;;;6183707;23;20021;-81
2021/09/22 08:45:55;;;;;;;3.33;2.78;;;15.70;99.90;;;;;;6183802;23;20388;-89
2021/09/22 08:48:24;;;;;;;1.80;1.70;;;15.70;99.90;;;;;;6185609;23;20020;-82
2021/09/22 08:50:56;;;;;;;2.58;2.38;;;15.60;99.90;;;;;;6158864;23;20021;-86
2021/09/22 08:53:24;;;;;;;26.00;4.00;;;15.70;99.90;;;;;;6184892;23;20025;-85
2021/09/22 08:55:51;;;;;;;1.90;1.80;;;15.80;99.90;;;;;;6207110;23;20197;-80
2021/09/22 08:58:19;;;;;;;1.90;1.80;;;16.00;99.90;;;;;;6183223;23;20047;-78
2021/09/22 09:00:47;;;;;;;1.80;1.70;;;15.80;99.90;;;;;;6207921;23;20060;-81
2021/09/22 09:03:33;;;;;;;2.00;1.90;;;15.90;99.90;;;;;;6183457;23;20075;-84
2021/09/22 09:06:37;;;;;;;2.53;2.33;;;15.70;99.90;;;;;;6184683;23;20076;-83
2021/09/22 09:09:05;;;;;;;2.05;1.92;;;15.70;99.90;;;;;;6182917;23;20385;-80
2021/09/22 09:11:37;;;;;;;2.00;1.90;;;15.70;99.90;;;;;;6181982;23;20013;-84
2021/09/22 09:14:11;;;;;;;1.80;1.70;;;15.70;99.90;;;;;;6183361;23;20025;-82
2021/09/22 09:16:49;;;;;;;1.75;1.65;;;15.60;99.90;;;;;;6208327;23;20013;-81
2021/09/22 09:19:19;;;;;;;1.80;1.70;;;15.60;99.90;;;;;;6182868;23;20045;-80
2021/09/22 09:22:15;;;;;;;2.10;2.00;;;15.60;99.90;;;;;;6183039;23;20100;-80
2021/09/22 09:24:45;;;;;;;1.85;1.75;;;15.60;99.90;;;;;;6184321;23;20037;-83
2021/09/22 09:27:20;;;;;;;1.80;1.70;;;15.60;99.90;;;;;;6158121;23;20052;-87
2021/09/22 09:29:53;;;;;;;2.00;1.90;;;15.70;99.90;;;;;;6182622;23;20104;-82
2021/09/22 09:32:26;;;;;;;2.22;2.10;;;15.70;99.90;;;;;;6184484;23;20398;-80
2021/09/22 09:35:09;;;;;;;1.90;1.80;;;15.70;99.90;;;;;;6182785;23;20100;-84
2021/09/22 09:37:43;;;;;;;2.55;2.35;;;15.70;99.90;;;;;;6207626;23;20017;-84
2021/09/22 09:40:33;;;;;;;2.67;2.47;;;15.60;99.90;;;;;;6184342;23;20384;-85
2021/09/22 09:43:04;;;;;;;2.38;2.20;;;15.50;99.90;;;;;;6183638;23;20020;-83
2021/09/22 09:45:45;;;;;;;1.90;1.80;;;15.60;99.90;;;;;;6181059;23;20079;-83
2021/09/22 09:48:13;;;;;;;;;;;15.60;99.90;;;;;;6182340;23;20641;-83
2021/09/22 09:50:47;;;;;;;1.90;1.80;;;15.70;99.90;;;;;;6157826;23;19916;-82
2021/09/22 09:53:29;;;;;;;7.22;2.40;;;15.60;99.90;;;;;;6182431;23;20076;-82
2021/09/22 09:56:04;;;;;;;2.17;1.98;;;15.60;99.90;;;;;;6183548;23;20009;-84
2021/09/22 09:58:43;;;;;;;1.90;1.80;;;15.70;99.90;;;;;;6184559;23;20013;-83
2021/09/22 10:01:17;;;;;;;4.80;2.97;;;15.60;99.90;;;;;;6158746;23;20020;-82
2021/09/22 10:03:46;;;;;;;2.78;2.58;;;15.60;99.90;;;;;;6183612;23;20017;-78
2021/09/22 10:06:14;;;;;;;1.90;1.80;;;15.60;99.90;;;;;;6183268;23;20383;-79
2021/09/22 10:08:41;;;;;;;1.90;1.80;;;15.60;99.90;;;;;;6157570;23;20020;-82
2021/09/22 10:11:09;;;;;;;2.10;2.00;;;15.60;99.90;;;;;;6183003;23;20021;-80
2021/09/22 10:13:42;;;;;;;1.95;1.85;;;15.60;99.90;;;;;;6182137;23;20462;-81
2021/09/22 10:16:31;;;;;;;1.90;1.80;;;15.70;99.90;;;;;;6182304;23;20075;-82
2021/09/22 10:18:58;;;;;;;2.60;2.40;;;15.80;99.90;;;;;;6206509;23;20060;-79
2021/09/22 10:21:27;;;;;;;1.90;1.80;;;15.60;99.90;;;;;;6183659;23;20017;-81
2021/09/22 10:24:11;;;;;;;2.22;2.10;;;15.70;99.90;;;;;;5130061;27;20404;-82
2021/09/22 10:27:04;;;;;;;1.90;1.80;;;15.80;99.90;;;;;;5130154;27;20409;-86
2021/09/22 10:30:00;;;;;;;2.67;2.47;;;15.70;99.90;;;;;;5109021;27;20473;-84
2021/09/22 10:32:53;;;;;;;3.15;2.55;;;15.60;99.90;;;;;;5109675;27;20438;-83
2021/09/22 10:35:57;;;;;;;2.35;2.15;;;15.60;99.90;;;;;;5129862;27;20433;-83
2021/09/22 10:38:42;;;;;;;4.07;2.45;;;15.50;99.90;;;;;;5089058;27;20398;-83
2021/09/22 10:41:30;;;;;;;2.20;2.10;;;15.50;99.90;;;;;;5068541;28;20376;-83
2021/09/22 10:44:35;;;;;;;1.90;1.80;;;15.50;99.90;;;;;;5088384;27;20141;-84
2021/09/22 10:47:26;;;;;;;1.90;1.80;;;15.60;99.90;;;;;;5120819;27;20411;-82
2021/09/22 11:00:40;;;;;;;1.90;1.80;;;15.80;99.90;;;;;;6104300;22;2116448;-82
2021/09/22 11:03:45;;;;;;;1.90;1.80;;;15.80;99.90;;;;;;5117684;27;20639;-83
2021/09/22 11:06:46;;;;;;;2.10;2.00;;;15.70;99.90;;;;;;5087630;27;20374;-82
2021/09/22 11:09:32;;;;;;;1.80;1.70;;;15.80;99.90;;;;;;5118261;27;20532;-82
2021/09/22 11:12:19;;;;;;;2.53;2.33;;;15.80;99.90;;;;;;5040522;27;20406;-80
2021/09/22 11:15:11;;;;;;;2.47;2.30;;;15.80;99.90;;;;;;5135288;27;20556;-81
2021/09/22 11:17:40;;;;;;;2.17;2.03;;;15.80;99.90;;;;;;5085610;28;20525;-83
2021/09/22 11:20:33;;;;;;;2.35;2.17;;;15.80;99.90;;;;;;5127977;27;20437;-85
2021/09/22 11:23:24;;;;;;;2.53;2.33;;;15.80;99.90;;;;;;5019121;28;20597;-85
2021/09/22 11:26:19;;;;;;;2.00;1.85;;;15.90;99.90;;;;;;5119114;27;20441;-82
2021/09/22 11:29:28;;;;;;;1.80;1.70;;;15.90;99.90;;;;;;5108066;27;20469;-80
2021/09/22 11:32:32;;;;;;;2.35;2.15;;;15.80;99.90;;;;;;5107380;27;20809;-79
2021/09/22 11:35:30;;;;;;;2.60;2.40;;;15.80;99.90;;;;;;5014126;28;20607;-82
2021/09/22 11:38:32;;;;;;;2.05;1.95;;;15.80;99.90;;;;;;5137287;27;20597;-80
2021/09/22 11:41:33;;;;;;;2.78;2.58;;;15.70;99.90;;;;;;5092558;27;20414;-82
2021/09/22 11:44:15;;;;;;;5.22;3.00;;;15.60;99.90;;;;;;5141081;27;20130;-79
2021/09/22 11:47:07;;;;;;;1.90;1.80;;;15.70;99.90;;;;;;5112659;27;20444;-82
2021/09/22 11:49:59;;;;;;;2.00;1.90;;;15.90;99.90;;;;;;5129601;27;20440;-82
2021/09/22 11:52:54;;;;;;;1.95;1.85;;;16.00;99.90;;;;;;5120184;27;20405;-81
2021/09/22 11:55:49;;;;;;;3.00;2.80;;;16.10;99.90;;;;;;5129522;27;20440;-82
2021/09/22 11:58:43;;;;;;;2.00;1.90;;;16.00;99.90;;;;;;5024568;27;20383;-82
2021/09/22 12:01:38;;;;;;;2.30;2.13;;;16.00;99.90;;;;;;5108386;27;20458;-82
2021/09/22 12:04:39;;;;;;;2.45;2.25;;;15.80;99.90;;;;;;5129765;27;20111;-84
2021/09/22 12:17:47;;;;;;;2.38;2.17;;;15.70;99.90;;;;;;6167318;22;1398698;-84
2021/09/22 12:30:54;;;;;;;2.00;1.90;;;15.70;99.90;;;;;;6134075;22;1489418;-84
2021/09/22 12:33:48;;;;;;;2.22;2.10;;;15.50;99.90;;;;;;5088972;27;20468;-87
2021/09/22 12:36:46;;;;;;;1.98;1.88;;;15.50;99.90;;;;;;5089026;27;20390;-83
2021/09/22 12:39:36;;;;;;;2.22;2.05;;;15.30;99.90;;;;;;5020165;28;20124;-82
2021/09/22 12:42:46;;;;;;;2.00;1.90;;;15.40;99.90;;;;;;5109406;27;20381;-84
2021/09/22 12:45:38;;;;;;;2.50;2.30;;;15.60;99.90;;;;;;5109221;27;20115;-85
2021/09/22 12:48:31;;;;;;;2.00;1.90;;;15.50;99.90;;;;;;5082761;28;20416;-81
2021/09/22 12:51:19;;;;;;;1.90;1.80;;;15.60;99.90;;;;;;5109229;27;20380;-82
2021/09/22 12:54:42;;;;;;;2.10;2.00;;;15.70;99.90;;;;;;5145342;27;20381;-87
2021/09/22 13:07:59;;;;;;;1.90;1.80;;;15.80;99.90;;;;;;6070923;22;1437195;-84
2021/09/22 13:11:08;;;;;;;3.08;2.88;;;15.50;99.90;;;;;;5129357;27;20428;-85
2021/09/22 13:24:20;;;;;;;2.13;2.03;;;15.50;99.90;;;;;;5047710;28;20385;-83
2021/09/22 13:27:14;;;;;;;1.90;1.80;;;15.70;99.90;;;;;;5109738;27;20451;-85
2021/09/22 13:30:05;;;;;;;2.67;2.47;;;15.70;99.90;;;;;;4972198;27;1465445;-85
2021/09/22 13:32:59;;;;;;;1.90;1.80;;;15.80;99.90;;;;;;5068211;28;20383;-85
2021/09/22 13:35:41;;;;;;;2.55;2.35;;;15.80;99.90;;;;;;5109010;27;20441;-85
2021/09/22 13:38:32;;;;;;;2.00;1.90;;;15.80;99.90;;;;;;5103500;27;20425;-83
2021/09/22 13:41:29;;;;;;;4.18;2.65;;;15.80;99.90;;;;;;5109729;27;20121;-83
2021/09/22 13:44:13;;;;;;;2.53;2.33;;;15.80;99.90;;;;;;5132954;27;20474;-88
2021/09/22 13:47:03;;;;;;;2.00;1.90;;;15.90;99.90;;;;;;5061436;28;20377;-84
2021/09/22 13:49:53;;;;;;;2.58;2.25;;;15.90;99.90;;;;;;5088524;27;21272;-86
2021/09/22 14:03:02;;;;;;;1.70;1.60;;;16.00;99.90;;;;;;6136096;22;1443255;-86
2021/09/22 14:05:54;;;;;;;2.85;2.65;;;16.20;99.90;;;;;;5129854;27;20409;-88
2021/09/22 14:19:03;;;;;;;2.10;1.90;;;16.10;99.90;;;;;;6134616;22;1410062;-83
2021/09/22 14:21:56;;;;;;;2.13;2.03;;;16.10;99.90;;;;;;5089163;27;20451;-86
2021/09/22 14:24:50;;;;;;;1.90;1.80;;;16.20;99.90;;;;;;5108579;27;20441;-85
2021/09/22 14:27:44;;;;;;;2.33;2.13;;;16.20;99.90;;;;;;5109029;27;22093;-85
2021/09/22 14:30:28;;;;;;;2.10;1.92;;;16.10;99.90;;;;;;5089415;28;20454;-84
2021/09/22 14:33:20;;;;;;;2.00;1.90;;;16.10;99.90;;;;;;5112745;27;20401;-86
2021/09/22 14:36:13;;;;;;;1.90;1.80;;;15.90;99.90;;;;;;5109480;27;20381;-83
2021/09/22 14:39:03;;;;;;;1.80;1.70;;;15.80;99.90;;;;;;5029115;27;20389;-81
2021/09/22 14:52:12;;;;;;;2.40;2.20;;;15.80;99.90;;;;;;6097952;22;1508132;-84